Terminal Aerodrome Forecast
Issued by NWS Green Bay, WI

Home | Current Version | Previous Version | Text Only | Print | Product List | Glossary On
Versions: 1 2 3 4 5 6 7 8 9 10 11 12 13 14 15 16 17
000
FTUS43 KGRB 221139
TAFGRB
TAF
KGRB 221139Z 2212/2312 27009G15KT P6SM SCT025
      TEMPO 2212/2213 BKN025
     FM221300 31012G20KT P6SM SCT015 BKN025
     FM221500 31016G23KT P6SM SCT040
     FM222300 30008KT P6SM SKC=

USA.gov is the U.S. government's official web portal to all federal, state and local government web resources and services.